Weather History for Perryton, TX

Change the Weather History Date:

Thursday, June 20, 2013

  Actual Average Record
Temperature  
Mean Temperature 80 °F -  
Max Temperature 95 °F 90 °F 104 °F (1974)
Min Temperature 64 °F 59 °F 46 °F (1973)
Cooling Degree Days 14    
Growing Degree Days 30 (Base 50)    
Moisture  
Dew Point 62 °F    
Average Humidity 60    
Maximum Humidity 96    
Minimum Humidity 32    
Precipitation  
Precipitation 0.00 in - - ()
Sea Level Pressure  
Sea Level Pressure 29.90 in    
Wind  
Wind Speed 16 mph (South)    
Max Wind Speed 31 mph    
Max Gust Speed 41 mph    
Visibility 10 miles    
Events      
Averages and records for this station are not official NWS values.
T = Trace of Precipitation, MM = Missing Value Source: NWS Daily Summary

Daily Weather History Graph

Daily Weather History Graph

Search for Another Location

Airport:

Trip Planner

Search our weather history database for the weather conditions in past years. The results will help you decide how hot, cold, wet, or windy it might be!

Date:

Astronomy

Jun. 20, 2013 Rise Set
Actual Time 6:25 AM CDT 9:04 PM CDT
Civil Twilight 5:54 AM CDT 9:34 PM CDT
Nautical Twilight 5:16 AM CDT 10:12 PM CDT
Astronomical Twilight 4:34 AM CDT 10:55 PM CDT
Moon 6:11 PM CDT (6/20) 3:49 AM CDT (6/20)
Length of Visible Light 15h 39m
Length of Day
14h 38m
Waxing Gibbous, 89% of the Moon is Illuminated
Jun 20
Waxing Gibbous
Jun 23
Full
Jun 29
Last Quarter
Jul 8
New
Jul 15
First Quarter

Hourly Weather History & Observations

Time (CDT) Temp. Heat Index Dew Point Humidity Pressure Visibility Wind Dir Wind Speed Gust Speed Precip Events Conditions
12:15 AM 69.1 °F - 60.3 °F 73% 29.94 in 10.0 mi SSE 9.2 mph - N/A   Clear
12:35 AM 68.5 °F - 60.1 °F 74% 29.95 in 10.0 mi SSE 6.9 mph - N/A   Clear
12:55 AM 68.0 °F - 60.3 °F 76% 29.94 in 10.0 mi SSE 9.2 mph - N/A   Clear
1:15 AM 67.3 °F - 60.1 °F 78% 29.94 in 10.0 mi SE 8.1 mph - N/A   Clear
1:35 AM 67.1 °F - 60.1 °F 78% 29.92 in 10.0 mi SSE 11.5 mph - N/A   Clear
1:55 AM 66.6 °F - 60.8 °F 82% 29.91 in 10.0 mi SSE 13.8 mph - N/A   Clear
2:15 AM 66.6 °F - 61.0 °F 82% 29.90 in 10.0 mi SSE 13.8 mph - N/A   Clear
2:35 AM 66.2 °F - 61.7 °F 85% 29.89 in 10.0 mi SSE 11.5 mph - N/A   Clear
2:55 AM 65.7 °F - 61.9 °F 88% 29.90 in 10.0 mi SSE 10.4 mph - N/A   Clear
3:15 AM 65.5 °F - 62.6 °F 90% 29.90 in 10.0 mi SSE 9.2 mph - N/A   Clear
3:35 AM 65.8 °F - 63.0 °F 90% 29.90 in 10.0 mi SSE 11.5 mph - N/A   Clear
3:55 AM 66.2 °F - 63.5 °F 91% 29.91 in 10.0 mi SSE 9.2 mph - N/A   Clear
4:15 AM 65.5 °F - 63.5 °F 93% 29.91 in 7.0 mi SSE 8.1 mph - N/A   Clear
4:35 AM 65.3 °F - 63.7 °F 94% 29.91 in 7.0 mi SSE 9.2 mph - N/A   Clear
4:55 AM 65.7 °F - 64.0 °F 94% 29.91 in 7.0 mi SSE 11.5 mph - N/A   Clear
5:15 AM 65.8 °F - 64.0 °F 94% 29.91 in 10.0 mi SSE 12.7 mph - N/A   Clear
5:35 AM 65.7 °F - 63.9 °F 94% 29.91 in 7.0 mi SSE 9.2 mph - N/A   Clear
5:55 AM 64.8 °F - 63.5 °F 96% 29.92 in 7.0 mi South 11.5 mph - N/A   Clear
6:15 AM 64.9 °F - 63.7 °F 96% 29.92 in 7.0 mi South 11.5 mph - N/A   Clear
6:35 AM 64.9 °F - 63.7 °F 96% 29.92 in 5.0 mi SSE 11.5 mph - N/A   Clear
6:55 AM 64.9 °F - 63.7 °F 96% 29.92 in 7.0 mi SSE 13.8 mph - N/A   Clear
7:15 AM 65.7 °F - 64.0 °F 94% 29.92 in 7.0 mi South 12.7 mph - N/A   Clear
7:35 AM 66.4 °F - 64.4 °F 93% 29.92 in 10.0 mi SSE 13.8 mph - N/A   Clear
7:55 AM 67.8 °F - 64.6 °F 89% 29.92 in 10.0 mi South 16.1 mph - N/A   Clear
8:15 AM 69.3 °F - 64.4 °F 84% 29.92 in 10.0 mi SSE 19.6 mph 24.2 mph N/A   Clear
8:35 AM 70.7 °F - 64.4 °F 80% 29.92 in 10.0 mi SSE 20.7 mph 25.3 mph N/A   Clear
8:55 AM 71.6 °F - 64.4 °F 78% 29.92 in 10.0 mi SSE 17.3 mph 25.3 mph N/A   Clear
9:15 AM 73.0 °F - 64.8 °F 75% 29.93 in 10.0 mi South 17.3 mph - N/A   Clear
9:35 AM 74.7 °F - 64.9 °F 72% 29.93 in 10.0 mi South 20.7 mph - N/A   Clear
9:55 AM 75.9 °F - 64.9 °F 69% 29.93 in 10.0 mi South 20.7 mph - N/A   Clear
10:15 AM 77.7 °F - 65.1 °F 65% 29.92 in 10.0 mi South 23.0 mph - N/A   Clear
10:35 AM 79.2 °F - 64.6 °F 61% 29.92 in 10.0 mi South 25.3 mph 29.9 mph N/A   Clear
10:55 AM 80.2 °F 82.0 °F 64.8 °F 59% 29.92 in 10.0 mi South 26.5 mph 32.2 mph N/A   Clear
11:15 AM 81.7 °F 83.5 °F 64.9 °F 57% 29.91 in 10.0 mi South 27.6 mph 31.1 mph N/A   Clear
11:35 AM 83.1 °F 84.8 °F 64.9 °F 54% 29.92 in 10.0 mi South 25.3 mph 31.1 mph N/A   Clear
11:55 AM 84.9 °F 85.9 °F 63.5 °F 48% 29.92 in 10.0 mi SSW 23.0 mph 29.9 mph N/A   Clear
12:15 PM 86.5 °F 87.6 °F 63.7 °F 46% 29.92 in 10.0 mi SSW 23.0 mph 31.1 mph N/A   Clear
12:35 PM 87.4 °F 88.2 °F 63.1 °F 44% 29.92 in 10.0 mi South 23.0 mph 29.9 mph N/A   Clear
12:55 PM 88.0 °F 88.7 °F 63.0 °F 43% 29.91 in 10.0 mi South 23.0 mph 29.9 mph N/A   Clear
1:15 PM 87.4 °F 88.0 °F 62.4 °F 43% 29.92 in 10.0 mi SSW 23.0 mph 35.7 mph N/A   Clear
1:35 PM 88.3 °F 88.4 °F 61.5 °F 40% 29.91 in 10.0 mi SSW 23.0 mph 29.9 mph N/A   Clear
1:55 PM 90.1 °F 90.2 °F 61.3 °F 38% 29.91 in 10.0 mi South 21.9 mph 31.1 mph N/A   Clear
2:15 PM 91.0 °F 91.9 °F 62.6 °F 39% 29.91 in 10.0 mi South 23.0 mph 31.1 mph N/A   Clear
2:35 PM 92.3 °F 92.7 °F 62.1 °F 36% 29.90 in 10.0 mi SSW 25.3 mph 32.2 mph N/A   Clear
2:55 PM 92.3 °F 92.3 °F 61.3 °F 35% 29.90 in 10.0 mi South 25.3 mph 28.8 mph N/A   Clear
3:15 PM 92.7 °F 92.5 °F 60.3 °F 34% 29.89 in 10.0 mi South 27.6 mph 33.4 mph N/A   Clear
3:35 PM 93.2 °F 92.6 °F 59.4 °F 32% 29.89 in 10.0 mi SSW 23.0 mph 33.4 mph N/A   Clear
3:55 PM 95.0 °F 95.6 °F 61.3 °F 33% 29.88 in 10.0 mi South 26.5 mph 31.1 mph N/A   Clear
4:15 PM 93.9 °F 93.6 °F 59.9 °F 32% 29.87 in 10.0 mi South 29.9 mph 38.0 mph N/A   Clear
4:35 PM 93.6 °F 94.6 °F 62.6 °F 36% 29.87 in 10.0 mi South 26.5 mph 36.8 mph N/A   Clear
4:55 PM 93.7 °F 95.3 °F 63.9 °F 37% 29.87 in 10.0 mi South 29.9 mph 38.0 mph N/A   Clear
5:15 PM 93.6 °F 95.0 °F 63.3 °F 37% 29.86 in 10.0 mi South 27.6 mph 38.0 mph N/A   Clear
5:35 PM 93.7 °F 94.5 °F 62.4 °F 35% 29.86 in 10.0 mi South 26.5 mph 33.4 mph N/A   Clear
5:55 PM 93.4 °F 95.6 °F 64.8 °F 39% 29.86 in 10.0 mi South 31.1 mph 34.5 mph N/A   Scattered Clouds
6:15 PM 92.5 °F 94.1 °F 64.4 °F 39% 29.85 in 10.0 mi South 28.8 mph 41.4 mph N/A   Clear
6:35 PM 92.1 °F 94.0 °F 64.9 °F 40% 29.85 in 10.0 mi South 25.3 mph 35.7 mph N/A   Clear
6:55 PM 91.8 °F 93.4 °F 64.4 °F 40% 29.85 in 10.0 mi South 28.8 mph 34.5 mph N/A   Clear
7:15 PM 90.0 °F 91.3 °F 63.9 °F 42% 29.85 in 10.0 mi South 26.5 mph 33.4 mph N/A   Clear
7:35 PM 88.7 °F 89.8 °F 63.5 °F 43% 29.85 in 10.0 mi South 25.3 mph 34.5 mph N/A   Clear
7:55 PM 87.8 °F 88.8 °F 63.5 °F 44% 29.86 in 10.0 mi South 23.0 mph 32.2 mph N/A   Clear
8:15 PM 86.7 °F 87.0 °F 61.7 °F 43% 29.87 in 7.0 mi South 21.9 mph 35.7 mph N/A   Clear
8:35 PM 85.8 °F 85.2 °F 59.0 °F 40% 29.88 in 10.0 mi South 24.2 mph 33.4 mph N/A   Clear
8:55 PM 85.1 °F 84.6 °F 59.0 °F 41% 29.87 in 10.0 mi SSE 25.3 mph 32.2 mph N/A   Clear
9:15 PM 84.6 °F 84.2 °F 59.0 °F 42% 29.87 in 10.0 mi South 25.3 mph 36.8 mph N/A   Clear
9:35 PM 84.4 °F 84.0 °F 59.2 °F 42% 29.88 in 10.0 mi South 29.9 mph 35.7 mph N/A   Clear
9:55 PM 83.8 °F 83.4 °F 58.5 °F 42% 29.88 in 10.0 mi South 26.5 mph 34.5 mph N/A   Clear
10:15 PM 83.8 °F 83.4 °F 58.5 °F 42% 29.88 in 10.0 mi SSE 27.6 mph 35.7 mph N/A   Clear
10:35 PM 83.5 °F 83.2 °F 58.8 °F 43% 29.88 in 10.0 mi SSE 28.8 mph 34.5 mph N/A   Clear
10:55 PM 82.4 °F 82.3 °F 58.6 °F 44% 29.87 in 10.0 mi SSE 24.2 mph 32.2 mph N/A   Clear
11:15 PM 82.6 °F 81.6 °F 53.8 °F 37% 29.87 in 10.0 mi SSE 24.2 mph 31.1 mph N/A   Clear
11:35 PM 82.2 °F - 52.7 °F 36% 29.88 in 10.0 mi South 23.0 mph 28.8 mph N/A   Clear
11:55 PM 81.7 °F - 50.0 °F 33% 29.88 in 10.0 mi South 21.9 mph 28.8 mph N/A   Clear